Nixa, Missouri
Current Conditions -  °F | °C
As of 10:52 AM on Monday 22 Dec 2014 (Local Time) from KSGF Reporting Station
Moderate Rain Moderate Rain  
Wind Chill: 39°   Ceiling: 4200
Heat Index: 45°   Visibility: 4mi
Dew Point: 43°   Wind: 13mph
Humidity: 93%   Direction: 150°SSE
Pressure: 29.59"   Gusts: NA
Location:  37.04°N, 93.29°W
Report Text: KSGF 221652Z 15011KT 4SM RA BR SCT006 BKN042 OVC055 07/06 A2959 RMK AO2 SLP024 P0010 T00720061
Loading
Personal Weather Stations






























Interactive Weather Map New forecast layout! Learn more

10-Day Weather Forecast

Advertisements
Track Severe Weather on mobile